sensor_id;sensor_type;location;lat;lon;timestamp;pressure;altitude;pressure_sealevel;temperature;humidity
84492;BME280;74718;40.778;21.400;2024-01-30T00:01:15;95548.61;;;1.94;49.88
84492;BME280;74718;40.778;21.400;2024-01-30T00:03:40;95549.45;;;1.95;49.67
84492;BME280;74718;40.778;21.400;2024-01-30T00:06:08;95548.26;;;1.95;49.67
84492;BME280;74718;40.778;21.400;2024-01-30T00:08:34;95542.23;;;1.93;49.44
84492;BME280;74718;40.778;21.400;2024-01-30T00:10:59;95548.23;;;1.91;49.51
84492;BME280;74718;40.778;21.400;2024-01-30T00:13:26;95551.91;;;1.90;49.45
84492;BME280;74718;40.778;21.400;2024-01-30T00:15:51;95551.10;;;1.89;49.16
84492;BME280;74718;40.778;21.400;2024-01-30T00:18:17;95550.88;;;1.90;49.32
84492;BME280;74718;40.778;21.400;2024-01-30T00:20:44;95558.50;;;1.87;49.08
84492;BME280;74718;40.778;21.400;2024-01-30T00:23:09;95556.61;;;1.87;48.99
84492;BME280;74718;40.778;21.400;2024-01-30T00:25:35;95553.95;;;1.88;48.85
84492;BME280;74718;40.778;21.400;2024-01-30T00:28:00;95552.59;;;1.89;48.69
84492;BME280;74718;40.778;21.400;2024-01-30T00:30:26;95549.02;;;1.87;48.69
84492;BME280;74718;40.778;21.400;2024-01-30T00:32:52;95548.50;;;1.88;48.70
84492;BME280;74718;40.778;21.400;2024-01-30T00:35:17;95543.29;;;1.84;48.59
84492;BME280;74718;40.778;21.400;2024-01-30T00:37:43;95541.58;;;1.83;48.73
84492;BME280;74718;40.778;21.400;2024-01-30T00:40:09;95535.07;;;1.80;48.93
84492;BME280;74718;40.778;21.400;2024-01-30T00:42:41;95540.27;;;1.72;48.81
84492;BME280;74718;40.778;21.400;2024-01-30T00:45:12;95541.17;;;1.74;48.97
84492;BME280;74718;40.778;21.400;2024-01-30T00:47:38;95542.32;;;1.72;48.91
84492;BME280;74718;40.778;21.400;2024-01-30T00:50:03;95543.86;;;1.70;49.09
84492;BME280;74718;40.778;21.400;2024-01-30T00:52:29;95545.29;;;1.70;49.09
84492;BME280;74718;40.778;21.400;2024-01-30T00:54:54;95547.56;;;1.71;49.27
84492;BME280;74718;40.778;21.400;2024-01-30T00:57:20;95551.38;;;1.73;49.16
84492;BME280;74718;40.778;21.400;2024-01-30T00:59:45;95553.05;;;1.67;49.10
84492;BME280;74718;40.778;21.400;2024-01-30T01:02:11;95546.52;;;1.66;49.01
84492;BME280;74718;40.778;21.400;2024-01-30T01:04:37;95552.23;;;1.68;48.92
84492;BME280;74718;40.778;21.400;2024-01-30T01:07:02;95550.91;;;1.68;48.90
84492;BME280;74718;40.778;21.400;2024-01-30T01:09:28;95552.80;;;1.66;49.22
84492;BME280;74718;40.778;21.400;2024-01-30T01:11:53;95548.77;;;1.67;49.36
84492;BME280;74718;40.778;21.400;2024-01-30T01:14:19;95553.58;;;1.67;49.51
84492;BME280;74718;40.778;21.400;2024-01-30T01:16:45;95552.87;;;1.66;49.42
84492;BME280;74718;40.778;21.400;2024-01-30T01:19:10;95543.31;;;1.60;49.57
84492;BME280;74718;40.778;21.400;2024-01-30T01:21:36;95552.07;;;1.58;49.92
84492;BME280;74718;40.778;21.400;2024-01-30T01:24:01;95551.38;;;1.57;50.21
84492;BME280;74718;40.778;21.400;2024-01-30T01:26:27;95547.42;;;1.58;50.37
84492;BME280;74718;40.778;21.400;2024-01-30T01:28:53;95549.95;;;1.58;50.54
84492;BME280;74718;40.778;21.400;2024-01-30T01:31:18;95545.87;;;1.57;50.49
84492;BME280;74718;40.778;21.400;2024-01-30T01:33:44;95542.42;;;1.57;50.51
84492;BME280;74718;40.778;21.400;2024-01-30T01:36:09;95545.38;;;1.56;50.66
84492;BME280;74718;40.778;21.400;2024-01-30T01:38:35;95542.39;;;1.56;50.80
84492;BME280;74718;40.778;21.400;2024-01-30T01:41:01;95541.09;;;1.56;50.39
84492;BME280;74718;40.778;21.400;2024-01-30T01:43:26;95541.60;;;1.53;50.62
84492;BME280;74718;40.778;21.400;2024-01-30T01:45:52;95544.71;;;1.50;50.51
84492;BME280;74718;40.778;21.400;2024-01-30T01:48:17;95542.11;;;1.45;50.77
84492;BME280;74718;40.778;21.400;2024-01-30T01:50:43;95544.46;;;1.44;51.03
84492;BME280;74718;40.778;21.400;2024-01-30T01:53:09;95545.55;;;1.43;50.96
84492;BME280;74718;40.778;21.400;2024-01-30T01:55:35;95547.84;;;1.39;50.68
84492;BME280;74718;40.778;21.400;2024-01-30T01:58:01;95552.23;;;1.34;50.81
84492;BME280;74718;40.778;21.400;2024-01-30T02:00:27;95554.14;;;1.31;50.90
84492;BME280;74718;40.778;21.400;2024-01-30T02:02:54;95556.59;;;1.29;50.84
84492;BME280;74718;40.778;21.400;2024-01-30T02:05:21;95549.02;;;1.30;50.83
84492;BME280;74718;40.778;21.400;2024-01-30T02:07:47;95542.89;;;1.32;50.46
84492;BME280;74718;40.778;21.400;2024-01-30T02:10:13;95538.92;;;1.29;50.57
84492;BME280;74718;40.778;21.400;2024-01-30T02:12:39;95536.83;;;1.25;50.56
84492;BME280;74718;40.778;21.400;2024-01-30T02:15:05;95537.99;;;1.25;50.69
84492;BME280;74718;40.778;21.400;2024-01-30T02:17:32;95545.95;;;1.22;50.72
84492;BME280;74718;40.778;21.400;2024-01-30T02:19:58;95538.85;;;1.21;50.77
84492;BME280;74718;40.778;21.400;2024-01-30T02:22:24;95538.92;;;1.19;50.80
84492;BME280;74718;40.778;21.400;2024-01-30T02:24:49;95535.39;;;1.18;50.73
84492;BME280;74718;40.778;21.400;2024-01-30T02:27:15;95538.70;;;1.19;50.88
84492;BME280;74718;40.778;21.400;2024-01-30T02:29:40;95537.80;;;1.17;50.74
84492;BME280;74718;40.778;21.400;2024-01-30T02:32:06;95539.73;;;1.15;50.50
84492;BME280;74718;40.778;21.400;2024-01-30T02:34:33;95528.57;;;1.11;50.72
84492;BME280;74718;40.778;21.400;2024-01-30T02:36:59;95535.65;;;1.14;50.75
84492;BME280;74718;40.778;21.400;2024-01-30T02:39:24;95538.48;;;1.14;50.87
84492;BME280;74718;40.778;21.400;2024-01-30T02:41:50;95543.68;;;1.12;50.94
84492;BME280;74718;40.778;21.400;2024-01-30T02:44:16;95540.69;;;1.13;51.08
84492;BME280;74718;40.778;21.400;2024-01-30T02:46:41;95536.58;;;1.12;50.84
84492;BME280;74718;40.778;21.400;2024-01-30T02:49:07;95540.38;;;1.09;50.76
84492;BME280;74718;40.778;21.400;2024-01-30T02:51:32;95535.89;;;1.06;50.98
84492;BME280;74718;40.778;21.400;2024-01-30T02:53:58;95535.39;;;1.08;50.89
84492;BME280;74718;40.778;21.400;2024-01-30T02:56:23;95534.93;;;1.09;50.65
84492;BME280;74718;40.778;21.400;2024-01-30T02:58:49;95538.94;;;1.07;50.70
84492;BME280;74718;40.778;21.400;2024-01-30T03:01:14;95530.85;;;1.03;50.54
84492;BME280;74718;40.778;21.400;2024-01-30T03:03:40;95535.13;;;1.04;50.53
84492;BME280;74718;40.778;21.400;2024-01-30T03:06:06;95535.52;;;1.00;50.47
84492;BME280;74718;40.778;21.400;2024-01-30T03:08:32;95534.65;;;0.94;50.54
84492;BME280;74718;40.778;21.400;2024-01-30T03:11:00;95538.46;;;0.93;50.68
84492;BME280;74718;40.778;21.400;2024-01-30T03:13:25;95528.10;;;0.90;50.74
84492;BME280;74718;40.778;21.400;2024-01-30T03:15:51;95530.20;;;0.86;50.69
84492;BME280;74718;40.778;21.400;2024-01-30T03:18:17;95534.54;;;0.83;50.88
84492;BME280;74718;40.778;21.400;2024-01-30T03:20:43;95530.06;;;0.82;50.83
84492;BME280;74718;40.778;21.400;2024-01-30T03:23:08;95530.76;;;0.80;50.88
84492;BME280;74718;40.778;21.400;2024-01-30T03:25:34;95533.50;;;0.79;50.92
84492;BME280;74718;40.778;21.400;2024-01-30T03:27:59;95531.67;;;0.77;51.01
84492;BME280;74718;40.778;21.400;2024-01-30T03:30:25;95529.29;;;0.75;50.83
84492;BME280;74718;40.778;21.400;2024-01-30T03:32:50;95526.09;;;0.77;50.85
84492;BME280;74718;40.778;21.400;2024-01-30T03:35:16;95529.83;;;0.78;50.82
84492;BME280;74718;40.778;21.400;2024-01-30T03:37:41;95531.16;;;0.77;50.78
84492;BME280;74718;40.778;21.400;2024-01-30T03:40:07;95527.93;;;0.75;50.82
84492;BME280;74718;40.778;21.400;2024-01-30T03:42:33;95526.55;;;0.71;50.78
84492;BME280;74718;40.778;21.400;2024-01-30T03:44:58;95524.65;;;0.68;50.80
84492;BME280;74718;40.778;21.400;2024-01-30T03:47:24;95529.49;;;0.66;50.75
84492;BME280;74718;40.778;21.400;2024-01-30T03:49:50;95531.42;;;0.68;50.95
84492;BME280;74718;40.778;21.400;2024-01-30T03:52:15;95536.73;;;0.67;50.93
84492;BME280;74718;40.778;21.400;2024-01-30T03:54:41;95532.67;;;0.66;51.00
84492;BME280;74718;40.778;21.400;2024-01-30T03:57:06;95535.07;;;0.63;51.08
84492;BME280;74718;40.778;21.400;2024-01-30T03:59:32;95537.18;;;0.63;51.25
84492;BME280;74718;40.778;21.400;2024-01-30T04:01:57;95537.33;;;0.62;51.28
84492;BME280;74718;40.778;21.400;2024-01-30T04:04:23;95542.43;;;0.59;51.30
84492;BME280;74718;40.778;21.400;2024-01-30T04:06:48;95540.77;;;0.59;51.32
84492;BME280;74718;40.778;21.400;2024-01-30T04:09:14;95533.48;;;0.59;51.28
84492;BME280;74718;40.778;21.400;2024-01-30T04:11:41;95535.82;;;0.58;51.37
84492;BME280;74718;40.778;21.400;2024-01-30T04:14:08;95533.73;;;0.55;51.42
84492;BME280;74718;40.778;21.400;2024-01-30T04:16:33;95535.05;;;0.50;51.57
84492;BME280;74718;40.778;21.400;2024-01-30T04:18:59;95540.77;;;0.48;51.57
84492;BME280;74718;40.778;21.400;2024-01-30T04:21:25;95540.59;;;0.44;51.50
84492;BME280;74718;40.778;21.400;2024-01-30T04:23:51;95546.50;;;0.40;51.69
84492;BME280;74718;40.778;21.400;2024-01-30T04:26:17;95547.89;;;0.40;51.68
84492;BME280;74718;40.778;21.400;2024-01-30T04:28:45;95546.05;;;0.40;51.58
84492;BME280;74718;40.778;21.400;2024-01-30T04:31:11;95550.30;;;0.37;51.82
84492;BME280;74718;40.778;21.400;2024-01-30T04:33:37;95550.96;;;0.34;51.82
84492;BME280;74718;40.778;21.400;2024-01-30T04:36:03;95550.36;;;0.33;52.02
84492;BME280;74718;40.778;21.400;2024-01-30T04:38:30;95554.52;;;0.29;52.20
84492;BME280;74718;40.778;21.400;2024-01-30T04:40:55;95552.01;;;0.31;52.21
84492;BME280;74718;40.778;21.400;2024-01-30T04:43:21;95552.39;;;0.34;52.24
84492;BME280;74718;40.778;21.400;2024-01-30T04:45:47;95553.64;;;0.35;52.28
84492;BME280;74718;40.778;21.400;2024-01-30T04:48:12;95553.20;;;0.36;52.28
84492;BME280;74718;40.778;21.400;2024-01-30T04:50:39;95553.55;;;0.34;52.35
84492;BME280;74718;40.778;21.400;2024-01-30T04:53:04;95552.41;;;0.35;52.63
84492;BME280;74718;40.778;21.400;2024-01-30T04:55:30;95550.20;;;0.40;52.54
84492;BME280;74718;40.778;21.400;2024-01-30T04:57:55;95550.16;;;0.40;52.30
84492;BME280;74718;40.778;21.400;2024-01-30T05:00:21;95554.17;;;0.35;52.39
84492;BME280;74718;40.778;21.400;2024-01-30T05:02:46;95554.89;;;0.30;52.57
84492;BME280;74718;40.778;21.400;2024-01-30T05:05:11;95563.37;;;0.28;52.83
84492;BME280;74718;40.778;21.400;2024-01-30T05:07:38;95561.78;;;0.29;52.86
84492;BME280;74718;40.778;21.400;2024-01-30T05:10:04;95562.98;;;0.27;52.64
84492;BME280;74718;40.778;21.400;2024-01-30T05:12:30;95566.30;;;0.21;52.72
84492;BME280;74718;40.778;21.400;2024-01-30T05:14:55;95570.53;;;0.17;52.97
84492;BME280;74718;40.778;21.400;2024-01-30T05:17:21;95572.46;;;0.20;52.86
84492;BME280;74718;40.778;21.400;2024-01-30T05:19:46;95573.58;;;0.19;52.79
84492;BME280;74718;40.778;21.400;2024-01-30T05:22:12;95572.27;;;0.18;52.72
84492;BME280;74718;40.778;21.400;2024-01-30T05:24:41;95574.52;;;0.15;52.71
84492;BME280;74718;40.778;21.400;2024-01-30T05:27:10;95571.19;;;0.14;52.88
84492;BME280;74718;40.778;21.400;2024-01-30T05:29:36;95574.42;;;0.15;52.68
84492;BME280;74718;40.778;21.400;2024-01-30T05:32:03;95571.52;;;0.15;52.78
84492;BME280;74718;40.778;21.400;2024-01-30T05:34:29;95577.86;;;0.13;52.62
84492;BME280;74718;40.778;21.400;2024-01-30T05:36:54;95584.25;;;0.10;52.85
84492;BME280;74718;40.778;21.400;2024-01-30T05:39:20;95591.61;;;0.13;52.89
84492;BME280;74718;40.778;21.400;2024-01-30T05:41:45;95597.40;;;0.13;52.88
84492;BME280;74718;40.778;21.400;2024-01-30T05:44:11;95594.55;;;0.14;52.93
84492;BME280;74718;40.778;21.400;2024-01-30T05:46:36;95591.80;;;0.16;52.97
84492;BME280;74718;40.778;21.400;2024-01-30T05:49:02;95593.19;;;0.16;52.85
84492;BME280;74718;40.778;21.400;2024-01-30T05:51:27;95590.02;;;0.16;52.93
84492;BME280;74718;40.778;21.400;2024-01-30T05:53:53;95599.05;;;0.14;52.89
84492;BME280;74718;40.778;21.400;2024-01-30T05:56:19;95601.98;;;0.13;52.86
84492;BME280;74718;40.778;21.400;2024-01-30T05:58:45;95601.27;;;0.11;52.93
84492;BME280;74718;40.778;21.400;2024-01-30T06:01:10;95601.42;;;0.13;52.96
84492;BME280;74718;40.778;21.400;2024-01-30T06:03:36;95603.70;;;0.13;52.96
84492;BME280;74718;40.778;21.400;2024-01-30T06:06:02;95603.91;;;0.14;52.83
84492;BME280;74718;40.778;21.400;2024-01-30T06:08:27;95601.36;;;0.15;52.97
84492;BME280;74718;40.778;21.400;2024-01-30T06:10:53;95598.17;;;0.14;52.78
84492;BME280;74718;40.778;21.400;2024-01-30T06:13:20;95601.09;;;0.14;52.72
84492;BME280;74718;40.778;21.400;2024-01-30T06:15:45;95602.16;;;0.20;52.82
84492;BME280;74718;40.778;21.400;2024-01-30T06:18:11;95604.84;;;0.32;52.82
84492;BME280;74718;40.778;21.400;2024-01-30T06:20:36;95603.42;;;0.45;52.66
84492;BME280;74718;40.778;21.400;2024-01-30T06:23:02;95606.62;;;0.51;52.27
84492;BME280;74718;40.778;21.400;2024-01-30T06:25:28;95612.95;;;0.58;52.35
84492;BME280;74718;40.778;21.400;2024-01-30T06:27:54;95614.86;;;0.71;52.22
84492;BME280;74718;40.778;21.400;2024-01-30T06:30:19;95613.61;;;0.81;52.20
84492;BME280;74718;40.778;21.400;2024-01-30T06:32:45;95611.05;;;0.80;52.06
84492;BME280;74718;40.778;21.400;2024-01-30T06:35:10;95616.14;;;0.82;51.75
84492;BME280;74718;40.778;21.400;2024-01-30T06:37:36;95619.80;;;0.91;51.73
84492;BME280;74718;40.778;21.400;2024-01-30T06:40:02;95619.71;;;1.04;51.60
84492;BME280;74718;40.778;21.400;2024-01-30T06:42:30;95619.35;;;1.14;51.50
84492;BME280;74718;40.778;21.400;2024-01-30T06:44:55;95614.76;;;1.25;51.30
84492;BME280;74718;40.778;21.400;2024-01-30T06:47:21;95611.65;;;1.31;51.22
84492;BME280;74718;40.778;21.400;2024-01-30T06:49:47;95614.05;;;1.43;50.98
84492;BME280;74718;40.778;21.400;2024-01-30T06:52:12;95615.78;;;1.61;50.72
84492;BME280;74718;40.778;21.400;2024-01-30T06:54:38;95615.23;;;1.75;50.60
84492;BME280;74718;40.778;21.400;2024-01-30T06:57:04;95619.30;;;1.88;50.29
84492;BME280;74718;40.778;21.400;2024-01-30T06:59:34;95615.78;;;2.01;50.05
84492;BME280;74718;40.778;21.400;2024-01-30T07:02:00;95621.03;;;2.11;49.30
84492;BME280;74718;40.778;21.400;2024-01-30T07:04:25;95622.83;;;2.19;49.29
84492;BME280;74718;40.778;21.400;2024-01-30T07:06:51;95624.81;;;2.13;48.45
84492;BME280;74718;40.778;21.400;2024-01-30T07:09:18;95628.50;;;2.13;48.45
84492;BME280;74718;40.778;21.400;2024-01-30T07:11:44;95626.73;;;2.15;48.45
84492;BME280;74718;40.778;21.400;2024-01-30T07:14:10;95626.91;;;2.16;48.46
84492;BME280;74718;40.778;21.400;2024-01-30T07:16:35;95627.74;;;2.16;48.16
84492;BME280;74718;40.778;21.400;2024-01-30T07:19:01;95630.45;;;2.23;48.06
84492;BME280;74718;40.778;21.400;2024-01-30T07:21:27;95628.27;;;2.25;47.87
84492;BME280;74718;40.778;21.400;2024-01-30T07:23:57;95624.30;;;2.28;47.92
84492;BME280;74718;40.778;21.400;2024-01-30T07:26:22;95625.00;;;2.35;47.78
84492;BME280;74718;40.778;21.400;2024-01-30T07:28:48;95620.48;;;2.44;47.58
84492;BME280;74718;40.778;21.400;2024-01-30T07:31:15;95615.53;;;2.49;47.37
84492;BME280;74718;40.778;21.400;2024-01-30T07:33:40;95616.16;;;2.57;47.37
84492;BME280;74718;40.778;21.400;2024-01-30T07:36:06;95610.17;;;2.69;47.30
84492;BME280;74718;40.778;21.400;2024-01-30T07:38:32;95606.15;;;2.79;47.24
84492;BME280;74718;40.778;21.400;2024-01-30T07:40:57;95603.73;;;2.83;47.08
84492;BME280;74718;40.778;21.400;2024-01-30T07:43:23;95603.40;;;2.82;46.79
84492;BME280;74718;40.778;21.400;2024-01-30T07:45:48;95607.23;;;2.70;46.76
84492;BME280;74718;40.778;21.400;2024-01-30T07:48:14;95603.11;;;2.68;47.11
84492;BME280;74718;40.778;21.400;2024-01-30T07:50:39;95602.27;;;2.74;46.91
84492;BME280;74718;40.778;21.400;2024-01-30T07:53:05;95606.09;;;2.78;46.84
84492;BME280;74718;40.778;21.400;2024-01-30T07:55:30;95600.84;;;2.86;47.18
84492;BME280;74718;40.778;21.400;2024-01-30T07:57:57;95596.39;;;2.94;47.20
84492;BME280;74718;40.778;21.400;2024-01-30T08:00:24;95603.33;;;3.03;47.25
84492;BME280;74718;40.778;21.400;2024-01-30T08:02:50;95602.23;;;3.12;47.31
84492;BME280;74718;40.778;21.400;2024-01-30T08:05:15;95604.83;;;3.16;47.09
84492;BME280;74718;40.778;21.400;2024-01-30T08:07:41;95596.70;;;3.26;46.71
84492;BME280;74718;40.778;21.400;2024-01-30T08:10:12;95598.28;;;3.33;46.42
84492;BME280;74718;40.778;21.400;2024-01-30T08:12:38;95596.35;;;3.41;46.48
84492;BME280;74718;40.778;21.400;2024-01-30T08:15:04;95600.08;;;3.43;46.19
84492;BME280;74718;40.778;21.400;2024-01-30T08:17:30;95601.77;;;3.39;45.70
84492;BME280;74718;40.778;21.400;2024-01-30T08:19:55;95602.40;;;3.40;45.73
84492;BME280;74718;40.778;21.400;2024-01-30T08:22:21;95603.19;;;3.43;45.50
84492;BME280;74718;40.778;21.400;2024-01-30T08:24:46;95600.20;;;3.51;45.86
84492;BME280;74718;40.778;21.400;2024-01-30T08:27:12;95603.55;;;3.58;45.87
84492;BME280;74718;40.778;21.400;2024-01-30T08:29:38;95600.41;;;3.63;45.58
84492;BME280;74718;40.778;21.400;2024-01-30T08:32:06;95601.27;;;3.65;45.51
84492;BME280;74718;40.778;21.400;2024-01-30T08:34:32;95605.10;;;3.72;45.33
84492;BME280;74718;40.778;21.400;2024-01-30T08:36:58;95604.14;;;3.79;45.48
84492;BME280;74718;40.778;21.400;2024-01-30T08:39:23;95605.85;;;3.82;45.28
84492;BME280;74718;40.778;21.400;2024-01-30T08:41:49;95608.88;;;3.89;45.13
84492;BME280;74718;40.778;21.400;2024-01-30T08:44:14;95604.42;;;3.88;44.77
84492;BME280;74718;40.778;21.400;2024-01-30T08:46:40;95607.16;;;3.93;45.05
84492;BME280;74718;40.778;21.400;2024-01-30T08:49:05;95608.05;;;3.98;44.44
84492;BME280;74718;40.778;21.400;2024-01-30T08:51:31;95605.42;;;4.02;44.52
84492;BME280;74718;40.778;21.400;2024-01-30T08:53:56;95602.77;;;4.15;44.03
84492;BME280;74718;40.778;21.400;2024-01-30T08:56:23;95601.05;;;4.16;43.49
84492;BME280;74718;40.778;21.400;2024-01-30T08:58:49;95603.20;;;4.05;43.20
84492;BME280;74718;40.778;21.400;2024-01-30T09:01:14;95603.23;;;4.03;43.48
84492;BME280;74718;40.778;21.400;2024-01-30T09:03:40;95601.23;;;4.16;43.71
84492;BME280;74718;40.778;21.400;2024-01-30T09:06:09;95604.66;;;4.31;43.81
84492;BME280;74718;40.778;21.400;2024-01-30T09:08:35;95600.34;;;4.42;43.66
84492;BME280;74718;40.778;21.400;2024-01-30T09:11:00;95599.38;;;4.41;43.10
84492;BME280;74718;40.778;21.400;2024-01-30T09:13:26;95603.23;;;4.44;43.52
84492;BME280;74718;40.778;21.400;2024-01-30T09:15:51;95605.38;;;4.63;43.61
84492;BME280;74718;40.778;21.400;2024-01-30T09:18:18;95602.95;;;4.82;42.96
84492;BME280;74718;40.778;21.400;2024-01-30T09:20:44;95605.27;;;4.93;42.94
84492;BME280;74718;40.778;21.400;2024-01-30T09:23:13;95608.04;;;4.92;42.12
84492;BME280;74718;40.778;21.400;2024-01-30T09:25:38;95602.10;;;4.82;42.61
84492;BME280;74718;40.778;21.400;2024-01-30T09:28:04;95600.98;;;4.83;42.56
84492;BME280;74718;40.778;21.400;2024-01-30T09:30:30;95603.34;;;4.94;42.90
84492;BME280;74718;40.778;21.400;2024-01-30T09:32:56;95596.55;;;5.14;42.61
84492;BME280;74718;40.778;21.400;2024-01-30T09:35:21;95593.98;;;5.40;42.45
84492;BME280;74718;40.778;21.400;2024-01-30T09:37:47;95590.30;;;5.48;41.98
84492;BME280;74718;40.778;21.400;2024-01-30T09:40:14;95587.14;;;5.43;42.09
84492;BME280;74718;40.778;21.400;2024-01-30T09:42:46;95587.25;;;5.49;42.61
84492;BME280;74718;40.778;21.400;2024-01-30T09:45:14;95584.35;;;5.52;42.27
84492;BME280;74718;40.778;21.400;2024-01-30T09:47:44;95579.20;;;5.54;42.12
84492;BME280;74718;40.778;21.400;2024-01-30T09:50:14;95580.90;;;5.50;41.96
84492;BME280;74718;40.778;21.400;2024-01-30T09:52:40;95579.82;;;5.46;41.99
84492;BME280;74718;40.778;21.400;2024-01-30T09:55:07;95572.95;;;5.49;41.78
84492;BME280;74718;40.778;21.400;2024-01-30T09:57:34;95572.01;;;5.43;41.32
84492;BME280;74718;40.778;21.400;2024-01-30T10:00:01;95564.23;;;5.40;41.72
84492;BME280;74718;40.778;21.400;2024-01-30T10:02:27;95565.63;;;5.48;42.00
84492;BME280;74718;40.778;21.400;2024-01-30T10:04:52;95564.23;;;5.57;41.36
84492;BME280;74718;40.778;21.400;2024-01-30T10:07:18;95560.39;;;5.62;41.42
84492;BME280;74718;40.778;21.400;2024-01-30T10:09:45;95557.67;;;5.57;41.41
84492;BME280;74718;40.778;21.400;2024-01-30T10:12:11;95558.29;;;5.58;41.27
84492;BME280;74718;40.778;21.400;2024-01-30T10:14:40;95556.48;;;5.60;40.80
84492;BME280;74718;40.778;21.400;2024-01-30T10:17:08;95552.08;;;5.68;40.69
84492;BME280;74718;40.778;21.400;2024-01-30T10:19:38;95544.39;;;5.79;40.23
84492;BME280;74718;40.778;21.400;2024-01-30T10:22:04;95536.23;;;5.84;40.29
84492;BME280;74718;40.778;21.400;2024-01-30T10:24:30;95534.61;;;5.79;39.65
84492;BME280;74718;40.778;21.400;2024-01-30T10:26:56;95531.34;;;5.76;39.89
84492;BME280;74718;40.778;21.400;2024-01-30T10:29:22;95526.17;;;5.82;39.94
84492;BME280;74718;40.778;21.400;2024-01-30T10:32:01;95527.59;;;5.88;39.75
84492;BME280;74718;40.778;21.400;2024-01-30T10:34:26;95522.88;;;5.88;39.54
84492;BME280;74718;40.778;21.400;2024-01-30T10:39:28;95515.93;;;5.91;39.29
84492;BME280;74718;40.778;21.400;2024-01-30T10:41:56;95512.54;;;5.89;38.96
84492;BME280;74718;40.778;21.400;2024-01-30T10:44:26;95515.54;;;5.87;38.49
84492;BME280;74718;40.778;21.400;2024-01-30T10:47:00;95509.80;;;5.94;38.53
84492;BME280;74718;40.778;21.400;2024-01-30T10:49:28;95513.08;;;6.17;38.57
84492;BME280;74718;40.778;21.400;2024-01-30T10:51:55;95511.78;;;6.29;38.32
84492;BME280;74718;40.778;21.400;2024-01-30T10:54:21;95504.63;;;6.42;38.34
84492;BME280;74718;40.778;21.400;2024-01-30T10:56:48;95502.15;;;6.56;38.07
84492;BME280;74718;40.778;21.400;2024-01-30T10:59:15;95499.85;;;6.56;37.91
84492;BME280;74718;40.778;21.400;2024-01-30T11:01:41;95501.45;;;6.48;37.33
84492;BME280;74718;40.778;21.400;2024-01-30T11:04:06;95504.93;;;6.40;37.67
84492;BME280;74718;40.778;21.400;2024-01-30T11:06:41;95502.15;;;6.47;38.00
84492;BME280;74718;40.778;21.400;2024-01-30T11:09:10;95494.89;;;6.63;37.88
84492;BME280;74718;40.778;21.400;2024-01-30T11:11:58;95495.20;;;6.57;37.66
84492;BME280;74718;40.778;21.400;2024-01-30T11:14:29;95495.07;;;6.61;37.05
84492;BME280;74718;40.778;21.400;2024-01-30T11:16:58;95492.79;;;6.48;36.71
84492;BME280;74718;40.778;21.400;2024-01-30T11:19:31;95491.83;;;6.39;36.72
84492;BME280;74718;40.778;21.400;2024-01-30T11:21:58;95497.11;;;6.40;37.13
84492;BME280;74718;40.778;21.400;2024-01-30T11:24:24;95490.45;;;6.42;37.06
84492;BME280;74718;40.778;21.400;2024-01-30T11:26:55;95483.50;;;6.52;37.55
84492;BME280;74718;40.778;21.400;2024-01-30T11:29:24;95475.10;;;6.62;37.28
84492;BME280;74718;40.778;21.400;2024-01-30T11:31:57;95481.19;;;6.58;37.30
84492;BME280;74718;40.778;21.400;2024-01-30T11:34:23;95482.65;;;6.66;37.22
84492;BME280;74718;40.778;21.400;2024-01-30T11:36:55;95478.70;;;6.76;36.81
84492;BME280;74718;40.778;21.400;2024-01-30T11:39:25;95478.25;;;6.70;36.68
84492;BME280;74718;40.778;21.400;2024-01-30T11:41:52;95466.65;;;6.60;36.62
84492;BME280;74718;40.778;21.400;2024-01-30T11:44:22;95466.25;;;6.59;36.16
84492;BME280;74718;40.778;21.400;2024-01-30T11:46:48;95465.79;;;6.42;35.67
84492;BME280;74718;40.778;21.400;2024-01-30T11:49:15;95451.72;;;6.35;36.07
84492;BME280;74718;40.778;21.400;2024-01-30T11:51:41;95448.30;;;6.16;36.08
84492;BME280;74718;40.778;21.400;2024-01-30T11:54:07;95450.88;;;6.17;36.63
84492;BME280;74718;40.778;21.400;2024-01-30T11:56:33;95439.05;;;6.30;36.51
84492;BME280;74718;40.778;21.400;2024-01-30T11:58:58;95440.43;;;6.37;36.70
84492;BME280;74718;40.778;21.400;2024-01-30T12:01:26;95435.86;;;6.30;36.06
84492;BME280;74718;40.778;21.400;2024-01-30T12:03:52;95430.36;;;6.28;36.36
84492;BME280;74718;40.778;21.400;2024-01-30T12:06:18;95428.34;;;6.36;36.39
84492;BME280;74718;40.778;21.400;2024-01-30T12:08:59;95420.84;;;6.49;36.55
84492;BME280;74718;40.778;21.400;2024-01-30T12:11:26;95416.07;;;6.60;36.45
84492;BME280;74718;40.778;21.400;2024-01-30T12:13:53;95414.67;;;6.68;36.44
84492;BME280;74718;40.778;21.400;2024-01-30T12:16:19;95403.98;;;6.70;36.29
84492;BME280;74718;40.778;21.400;2024-01-30T12:18:45;95402.05;;;6.64;36.11
84492;BME280;74718;40.778;21.400;2024-01-30T12:21:11;95395.30;;;6.59;36.24
84492;BME280;74718;40.778;21.400;2024-01-30T12:23:36;95396.02;;;6.65;35.80
84492;BME280;74718;40.778;21.400;2024-01-30T12:26:03;95378.42;;;6.70;35.93
84492;BME280;74718;40.778;21.400;2024-01-30T12:28:32;95387.60;;;6.55;35.66
84492;BME280;74718;40.778;21.400;2024-01-30T12:31:04;95385.21;;;6.57;35.87
84492;BME280;74718;40.778;21.400;2024-01-30T12:33:30;95382.48;;;6.73;35.77
84492;BME280;74718;40.778;21.400;2024-01-30T12:35:57;95384.10;;;6.80;35.95
84492;BME280;74718;40.778;21.400;2024-01-30T12:38:24;95374.73;;;6.89;35.90
84492;BME280;74718;40.778;21.400;2024-01-30T12:40:54;95377.96;;;6.81;35.19
84492;BME280;74718;40.778;21.400;2024-01-30T12:43:21;95376.15;;;6.67;34.64
84492;BME280;74718;40.778;21.400;2024-01-30T12:45:47;95381.63;;;6.50;34.63
84492;BME280;74718;40.778;21.400;2024-01-30T12:48:12;95380.42;;;6.42;34.32
84492;BME280;74718;40.778;21.400;2024-01-30T12:50:38;95379.43;;;6.34;34.62
84492;BME280;74718;40.778;21.400;2024-01-30T12:53:04;95375.74;;;6.45;35.20
84492;BME280;74718;40.778;21.400;2024-01-30T12:55:31;95368.41;;;6.43;34.97
84492;BME280;74718;40.778;21.400;2024-01-30T12:57:56;95380.13;;;6.20;34.55